Time;durP1;ratioP1;P1;durP2;ratioP2;P2;SDS_P1;SDS_P2;PMS_P1;PMS_P2;Temp;Humidity;BMP_temperature;BMP_pressure;BME280_temperature;BME280_humidity;BME280_pressure;Samples;Min_cycle;Max_cycle;Signal;HPM_P1;HPM_P2
2022/10/17 09:09:18;;;;;;;10.75;6.10;;;;;;;21.19;59.38;100550.41;1086197;54;20030;-81
2022/10/17 09:10:32;;;;;;;11.55;5.55;;;;;;;21.31;59.67;100548.78;1087411;54;20044;-80
2022/10/17 09:11:51;;;;;;;11.57;5.97;;;;;;;21.22;59.35;100560.03;1087351;54;20034;-83
2022/10/17 09:13:05;;;;;;;13.07;5.95;;;;;;;21.31;59.24;100554.22;1087269;54;20757;-81
2022/10/17 09:14:25;;;;;;;12.15;5.38;;;;;;;21.40;58.60;100556.78;1087269;54;20675;-81
2022/10/17 09:15:43;;;;;;;10.77;6.07;;;;;;;21.41;58.70;100555.72;1090927;39;20586;-81
2022/10/17 09:17:03;;;;;;;9.65;5.65;;;;;;;21.47;58.99;100553.03;1087362;54;20030;-83
2022/10/17 09:18:12;;;;;;;10.43;5.75;;;;;;;21.53;58.53;100553.25;1087237;54;20038;-80
2022/10/17 09:19:20;;;;;;;8.77;5.10;;;;;;;21.69;58.64;100555.63;1087394;54;20031;-81
2022/10/17 09:20:28;;;;;;;8.95;4.45;;;;;;;21.85;58.50;100548.94;1087365;54;20042;-81
2022/10/17 09:21:38;;;;;;;11.23;5.70;;;;;;;21.80;58.01;100548.75;1087168;54;20055;-81
2022/10/17 09:22:44;;;;;;;;;;;;;;;21.74;57.69;100550.41;1087482;54;20066;-81
2022/10/17 09:23:53;;;;;;;10.00;5.03;;;;;;;21.84;57.80;100549.16;1087186;54;19938;-81
2022/10/17 09:25:02;;;;;;;10.73;4.72;;;;;;;22.06;57.17;100544.38;1087396;54;20049;-81
2022/10/17 09:26:06;;;;;;;9.63;4.75;;;;;;;22.16;57.12;100547.53;1087272;54;20031;-81
2022/10/17 09:27:21;;;;;;;12.68;4.50;;;;;;;22.11;56.01;100552.72;1088218;47;20038;-80
2022/10/17 09:28:31;;;;;;;11.35;4.53;;;;;;;22.38;55.80;100541.88;1087261;54;20030;-82
2022/10/17 09:29:35;;;;;;;6.30;3.80;;;;;;;22.59;55.26;100538.91;1087336;54;21041;-80
2022/10/17 09:30:44;;;;;;;5.53;3.35;;;;;;;22.74;54.06;100543.28;1087389;54;20057;-84
2022/10/17 09:31:52;;;;;;;6.80;3.17;;;;;;;22.87;52.94;100531.53;1087424;54;21028;-82
2022/10/17 09:32:56;;;;;;;8.88;2.72;;;;;;;22.89;52.93;100535.69;1087316;54;20078;-83
2022/10/17 09:34:04;;;;;;;5.60;2.17;;;;;;;22.92;51.25;100539.88;1087386;54;20038;-83
2022/10/17 09:35:12;;;;;;;6.15;2.13;;;;;;;22.97;51.86;100533.78;1087419;54;20058;-81
2022/10/17 09:36:20;;;;;;;4.28;1.90;;;;;;;23.09;51.00;100536.69;1087437;54;20030;-81
2022/10/17 09:37:28;;;;;;;4.05;1.83;;;;;;;22.98;50.58;100532.72;1087322;54;20057;-80
2022/10/17 09:38:40;;;;;;;3.83;1.67;;;;;;;23.08;49.42;100535.84;1087271;54;20023;-82
2022/10/17 09:39:46;;;;;;;4.35;1.88;;;;;;;23.30;50.08;100538.31;1087538;47;20038;-80
2022/10/17 09:40:57;;;;;;;4.40;1.85;;;;;;;23.41;48.65;100531.31;1087342;54;20035;-81
2022/10/17 09:42:02;;;;;;;4.95;1.90;;;;;;;23.25;50.00;100535.38;1087404;54;20096;-81
2022/10/17 09:43:07;;;;;;;4.85;1.65;;;;;;;23.49;49.59;100541.97;1088007;31;20698;-82
2022/10/17 09:44:17;;;;;;;6.43;1.70;;;;;;;23.67;48.12;100533.06;1087299;54;20050;-79
2022/10/17 09:45:25;;;;;;;6.07;1.52;;;;;;;23.79;48.51;100531.31;1087336;54;20777;-81
2022/10/17 09:46:35;;;;;;;3.80;1.60;;;;;;;23.82;47.99;100525.38;1087454;46;20065;-80
2022/10/17 09:47:43;;;;;;;6.33;1.50;;;;;;;23.93;47.67;100532.03;1087328;54;20030;-81
2022/10/17 09:48:49;;;;;;;4.40;1.67;;;;;;;23.89;48.19;100524.50;1087214;54;20313;-79
2022/10/17 09:49:53;;;;;;;3.45;1.40;;;;;;;23.95;48.33;100527.19;1087283;54;20738;-82
2022/10/17 09:50:55;;;;;;;5.53;1.88;;;;;;;24.05;48.33;100518.53;1088221;39;20582;-80
2022/10/17 09:52:00;;;;;;;4.03;1.38;;;;;;;23.51;48.49;100524.34;1087329;54;20038;-80
2022/10/17 09:53:12;;;;;;;5.45;1.85;;;;;;;24.08;47.52;100517.25;1087191;54;20065;-80
2022/10/17 09:54:20;;;;;;;8.25;2.17;;;;;;;24.21;47.15;100516.28;1087259;54;20068;-82
2022/10/17 09:55:32;;;;;;;5.15;2.22;;;;;;;24.29;46.94;100514.13;1087210;54;20034;-81
2022/10/17 09:56:59;;;;;;;7.53;1.83;;;;;;;24.29;46.71;100508.66;1089819;46;21157;-83
2022/10/17 09:58:05;;;;;;;5.40;1.75;;;;;;;24.35;47.03;100517.00;1087117;54;20061;-79
2022/10/17 09:59:12;;;;;;;3.08;1.25;;;;;;;24.44;46.02;100513.75;1087172;54;20038;-80
2022/10/17 10:00:23;;;;;;;4.63;2.47;;;;;;;24.23;46.01;100522.38;1087137;54;20043;-81
2022/10/17 10:01:30;;;;;;;6.55;2.10;;;;;;;24.42;45.80;100510.41;1087106;54;20065;-80
2022/10/17 10:02:35;;;;;;;5.50;1.98;;;;;;;24.53;46.51;100516.19;1087222;54;20042;-81
2022/10/17 10:07:04;;;;;;;5.07;1.80;;;;;;;24.51;45.97;100515.59;1085969;54;20061;-81
2022/10/17 10:08:17;;;;;;;6.50;1.73;;;;;;;24.66;45.27;100517.94;1086985;54;20069;-82
2022/10/17 10:09:27;;;;;;;4.70;2.20;;;;;;;24.90;45.50;100511.59;1086424;54;20030;-80
2022/10/17 10:10:29;;;;;;;;;;;;;;;24.84;44.80;100525.38;1086515;54;20046;-79
2022/10/17 10:11:50;;;;;;;4.47;1.92;;;;;;;24.97;45.01;100518.91;1087186;47;19926;-79
2022/10/17 10:13:06;;;;;;;4.43;1.60;;;;;;;25.04;44.47;100517.72;1086985;54;20045;-81
2022/10/17 10:14:12;;;;;;;4.43;1.60;;;;;;;25.29;44.47;100518.69;1087678;54;20537;-84
2022/10/17 10:15:35;;;;;;;5.53;1.70;;;;;;;25.37;44.20;100521.09;1087485;54;20039;-81
2022/10/17 10:16:49;;;;;;;4.43;2.00;;;;;;;24.76;44.99;100530.03;1087297;54;20050;-78
2022/10/17 10:17:52;;;;;;;5.03;1.60;;;;;;;24.52;45.88;100531.75;1086413;54;20042;-82
2022/10/17 10:18:56;;;;;;;4.78;1.70;;;;;;;24.92;45.81;100527.78;1086046;54;20043;-83
2022/10/17 10:19:58;;;;;;;4.75;1.80;;;;;;;24.67;45.73;100525.91;1086842;54;20038;-78
2022/10/17 10:21:08;;;;;;;4.22;1.90;;;;;;;24.88;44.96;100527.41;1086958;54;20022;-80
2022/10/17 10:22:15;;;;;;;4.82;1.80;;;;;;;25.10;44.94;100524.19;1087145;54;20022;-79
2022/10/17 10:23:21;;;;;;;4.05;1.90;;;;;;;24.69;45.91;100531.19;1087287;54;20030;-81
2022/10/17 10:24:26;;;;;;;4.03;1.92;;;;;;;25.12;45.39;100526.72;1086841;54;20039;-78
2022/10/17 10:25:27;;;;;;;5.55;2.17;;;;;;;25.04;45.57;100536.06;1087146;54;20046;-83
2022/10/17 10:26:36;;;;;;;7.85;1.73;;;;;;;24.86;45.62;100532.28;1087052;47;21096;-78
2022/10/17 10:27:42;;;;;;;3.90;1.73;;;;;;;24.66;45.96;100524.25;1086162;54;20086;-81
2022/10/17 10:28:54;;;;;;;4.95;1.65;;;;;;;25.07;45.25;100536.44;1086137;54;20061;-79
2022/10/17 10:29:56;;;;;;;3.40;1.60;;;;;;;25.30;45.34;100534.03;1086139;54;20042;-78
2022/10/17 10:31:06;;;;;;;5.47;1.40;;;;;;;25.55;44.74;100531.19;1086644;54;20031;-82
2022/10/17 10:32:22;;;;;;;3.50;1.52;;;;;;;25.54;44.30;100529.53;1087284;47;20666;-82
2022/10/17 10:33:33;;;;;;;3.83;1.55;;;;;;;25.57;44.73;100534.53;1087108;47;20039;-82
2022/10/17 10:34:41;;;;;;;3.42;1.50;;;;;;;25.95;44.03;100525.13;1086758;54;20065;-84
2022/10/17 10:35:56;;;;;;;4.70;1.70;;;;;;;25.44;44.36;100538.31;1085274;54;20113;-82
2022/10/17 10:37:05;;;;;;;4.30;1.63;;;;;;;25.14;45.18;100535.50;1087027;54;20579;-85
2022/10/17 10:38:13;;;;;;;6.72;1.55;;;;;;;25.05;45.26;100524.88;1084930;54;20062;-83
2022/10/17 10:39:31;;;;;;;4.38;1.80;;;;;;;25.06;45.25;100534.75;1086115;54;20038;-77
2022/10/17 10:41:13;;;;;;;3.25;1.50;;;;;;;25.60;43.99;100538.72;1087245;54;20038;-77
2022/10/17 10:42:30;;;;;;;4.60;1.55;;;;;;;25.82;43.77;100536.25;1087348;54;20034;-78
2022/10/17 10:43:43;;;;;;;3.47;1.67;;;;;;;26.22;43.80;100537.53;1087436;54;20038;-78
2022/10/17 10:44:46;;;;;;;4.03;1.70;;;;;;;26.54;43.69;100532.56;1086791;54;20452;-81
2022/10/17 10:47:26;;;;;;;5.90;1.42;;;;;;;25.85;44.24;100535.81;1088127;39;20855;-78
2022/10/17 10:48:35;;;;;;;5.65;2.05;;;;;;;25.94;43.93;100528.06;1086961;54;20049;-77
2022/10/17 10:49:38;;;;;;;6.30;2.05;;;;;;;25.83;44.34;100535.19;1087775;46;20722;-77
2022/10/17 10:51:10;;;;;;;4.90;1.95;;;;;;;25.93;44.22;100531.91;1086999;54;20047;-79
2022/10/17 10:52:23;;;;;;;4.90;1.70;;;;;;;25.97;43.67;100533.94;1087009;54;20037;-78
2022/10/17 10:53:37;;;;;;;7.53;1.70;;;;;;;25.07;44.86;100541.91;1086139;54;20628;-80
2022/10/17 10:54:42;;;;;;;4.18;1.90;;;;;;;25.20;45.30;100534.59;1084459;54;20038;-79
2022/10/17 10:55:52;;;;;;;5.10;1.70;;;;;;;24.65;46.17;100538.13;1084445;46;20043;-79
2022/10/17 10:56:58;;;;;;;5.63;1.80;;;;;;;24.61;46.68;100540.50;1084455;54;20054;-81
2022/10/17 10:58:36;;;;;;;6.25;1.60;;;;;;;24.38;47.38;100549.34;1084734;46;20049;-80
2022/10/17 10:59:57;;;;;;;7.05;1.90;;;;;;;24.21;47.88;100543.59;1084800;54;20581;-79
2022/10/17 11:01:11;;;;;;;4.05;1.80;;;;;;;23.95;48.74;100542.75;1085369;54;20046;-82
2022/10/17 11:02:21;;;;;;;7.13;1.80;;;;;;;24.05;48.56;100543.09;1087437;46;20042;-81
2022/10/17 11:03:30;;;;;;;6.05;2.05;;;;;;;23.98;48.59;100536.88;1086730;54;20042;-80
2022/10/17 11:04:42;;;;;;;4.82;1.58;;;;;;;24.14;48.37;100544.50;1083347;54;20174;-78
2022/10/17 11:05:52;;;;;;;5.30;1.70;;;;;;;24.37;48.13;100532.09;1084947;54;20038;-81
2022/10/17 11:07:09;;;;;;;4.93;1.75;;;;;;;24.16;48.36;100536.06;1086587;54;20067;-79
2022/10/17 11:08:23;;;;;;;3.63;1.60;;;;;;;24.27;48.37;100542.72;1086688;54;20059;-79
2022/10/17 11:09:35;;;;;;;3.85;1.80;;;;;;;24.25;48.69;100540.19;1086703;54;20030;-79
2022/10/17 11:10:54;;;;;;;4.10;1.67;;;;;;;23.80;49.37;100537.59;1086896;54;20133;-80
2022/10/17 11:12:07;;;;;;;6.82;1.77;;;;;;;23.96;49.16;100539.78;1086658;54;20577;-80
2022/10/17 11:13:14;;;;;;;6.40;2.17;;;;;;;23.75;49.90;100535.50;1086197;54;20030;-78
2022/10/17 11:14:29;;;;;;;5.03;1.83;;;;;;;23.57;50.35;100546.34;1087127;31;20591;-81
2022/10/17 11:15:41;;;;;;;4.30;2.00;;;;;;;23.46;50.56;100543.25;1085740;54;20082;-78
2022/10/17 11:16:50;;;;;;;6.53;2.38;;;;;;;23.68;49.96;100540.19;1086080;54;20053;-79
2022/10/17 11:17:56;;;;;;;7.07;2.50;;;;;;;23.93;49.48;100533.91;1086204;54;20050;-80
2022/10/17 11:19:12;;;;;;;5.85;1.90;;;;;;;23.61;50.25;100533.94;1086172;54;20058;-80
2022/10/17 11:20:24;;;;;;;5.97;2.15;;;;;;;23.47;50.93;100534.00;1085974;54;20059;-79
2022/10/17 11:21:38;;;;;;;5.20;2.03;;;;;;;23.42;50.93;100533.84;1085678;54;20055;-79
2022/10/17 11:22:48;;;;;;;4.10;1.90;;;;;;;23.44;51.44;100542.63;1086406;54;20051;-80
2022/10/17 11:23:58;;;;;;;5.43;1.98;;;;;;;23.60;50.86;100538.53;1086173;54;20042;-80
2022/10/17 11:25:06;;;;;;;6.47;1.95;;;;;;;23.56;50.72;100547.38;1086125;54;20591;-80
2022/10/17 11:26:25;;;;;;;4.18;1.92;;;;;;;23.39;51.31;100539.72;1086150;54;20034;-79
2022/10/17 11:27:33;;;;;;;4.82;1.73;;;;;;;23.31;51.32;100548.16;1085928;54;20628;-80
2022/10/17 11:28:37;;;;;;;3.50;1.60;;;;;;;23.21;51.92;100546.72;1086619;54;20038;-78
2022/10/17 11:31:58;;;;;;;4.85;1.98;;;;;;;23.32;51.87;100547.94;1087370;54;20002;-78
2022/10/17 11:33:02;;;;;;;5.22;2.20;;;;;;;23.61;51.32;100537.50;1088781;46;20034;-80
2022/10/17 11:36:26;;;;;;;7.68;2.22;;;;;;;23.44;51.18;100539.88;1088115;54;20018;-80
2022/10/17 11:37:36;;;;;;;5.43;1.80;;;;;;;23.59;50.91;100536.03;1097219;39;20417;-81
2022/10/17 11:38:48;;;;;;;4.70;1.73;;;;;;;23.75;50.61;100529.22;1096671;46;20031;-80
2022/10/17 11:39:56;;;;;;;4.60;1.92;;;;;;;23.87;50.21;100526.63;1088605;54;20018;-82
2022/10/17 12:07:55;;;;;;;7.00;2.47;;;;;;;23.99;50.59;100541.28;1083721;54;20074;-81
2022/10/17 12:10:52;;;;;;;5.55;2.30;;;;;;;23.97;50.74;100540.66;1087659;54;20027;-79
2022/10/17 12:12:08;;;;;;;4.53;1.88;;;;;;;24.05;50.83;100536.78;1088174;54;20035;-78
2022/10/17 12:13:40;;;;;;;9.52;2.42;;;;;;;23.91;50.86;100531.41;1088990;46;20026;-80
2022/10/17 12:16:46;;;;;;;6.55;2.63;;;;;;;24.23;50.91;100541.47;1089959;46;20086;-79
2022/10/17 12:20:03;;;;;;;5.93;2.65;;;;;;;24.21;50.93;100543.59;1087849;54;20018;-80
2022/10/17 12:21:07;;;;;;;5.43;3.25;;;;;;;24.21;51.34;100538.13;1089071;46;20034;-80
2022/10/17 12:22:27;;;;;;;8.32;2.97;;;;;;;24.12;51.53;100538.41;1088566;46;20534;-79
2022/10/17 12:23:29;;;;;;;;;;;;;;;24.05;51.58;100545.84;1087793;54;20037;-78
2022/10/17 12:24:41;;;;;;;7.47;3.15;;;;;;;24.19;51.43;100534.78;1088031;47;19939;-80
2022/10/17 12:25:49;;;;;;;7.18;2.38;;;;;;;24.31;51.15;100538.47;1088879;46;20050;-79
2022/10/17 12:26:53;;;;;;;4.68;2.15;;;;;;;24.48;50.87;100538.72;1088087;54;20015;-82
2022/10/17 12:28:17;;;;;;;6.13;2.33;;;;;;;24.34;51.38;100543.50;1090287;46;20019;-79
2022/10/17 12:29:27;;;;;;;4.55;2.20;;;;;;;24.60;51.15;100531.47;1088295;54;20027;-82
2022/10/17 12:30:32;;;;;;;4.75;2.17;;;;;;;24.65;50.93;100530.78;1089993;46;20046;-81
2022/10/17 12:31:33;;;;;;;3.80;2.08;;;;;;;24.47;51.58;100536.25;1089793;46;20026;-79
2022/10/17 12:47:38;;;;;;;5.47;2.40;;;;;;;24.94;51.80;100549.41;1086927;54;20121;-81
2022/10/17 12:49:01;;;;;;;4.15;2.10;;;;;;;24.77;51.34;100547.31;1086384;54;20054;-82
2022/10/17 12:50:05;;;;;;;5.85;2.00;;;;;;;25.01;51.27;100547.44;1086060;54;20034;-79
2022/10/17 12:51:20;;;;;;;5.63;2.40;;;;;;;24.76;51.28;100551.09;1086308;54;20065;-80
2022/10/17 12:52:49;;;;;;;7.53;2.40;;;;;;;24.63;50.49;100551.19;1086537;39;20434;-82
2022/10/17 12:53:57;;;;;;;9.63;2.08;;;;;;;24.53;49.91;100546.25;1087015;54;20040;-82
2022/10/17 12:55:15;;;;;;;5.28;2.42;;;;;;;24.38;49.71;100547.44;1087411;54;20034;-82
2022/10/17 12:56:19;;;;;;;6.07;2.50;;;;;;;24.78;49.56;100546.25;1086444;54;20061;-81
2022/10/17 12:57:28;;;;;;;7.55;2.30;;;;;;;24.85;49.27;100548.88;1087361;46;20033;-85
2022/10/17 12:58:33;;;;;;;6.70;2.78;;;;;;;24.61;49.29;100548.69;1088364;46;20037;-81
2022/10/17 12:59:46;;;;;;;6.38;2.90;;;;;;;24.79;48.40;100549.78;1087689;54;20057;-80
2022/10/17 13:00:54;;;;;;;7.05;2.63;;;;;;;24.87;48.36;100550.34;1087317;54;20038;-81
2022/10/17 13:01:58;;;;;;;6.82;2.53;;;;;;;24.89;48.40;100550.09;1090334;47;20026;-81
2022/10/17 13:03:27;;;;;;;7.43;2.50;;;;;;;24.89;47.46;100531.78;1087650;54;20034;-80
2022/10/17 13:04:33;;;;;;;6.83;2.37;;;;;;;24.98;48.01;100540.53;1088904;31;20668;-82
2022/10/17 13:05:52;;;;;;;5.57;2.55;;;;;;;24.91;47.53;100548.00;1087129;54;20259;-80
2022/10/17 13:06:56;;;;;;;6.33;2.67;;;;;;;24.86;48.39;100554.13;1087408;54;20030;-82
2022/10/17 13:08:19;;;;;;;5.50;2.50;;;;;;;24.99;47.51;100550.41;1087491;54;20252;-81
2022/10/17 13:09:25;;;;;;;9.73;2.92;;;;;;;24.71;47.75;100546.31;1087523;54;20651;-80
2022/10/17 13:10:32;;;;;;;6.32;2.33;;;;;;;24.93;47.63;100554.06;1087493;54;20042;-82
2022/10/17 13:11:36;;;;;;;5.43;2.70;;;;;;;25.06;47.35;100551.16;1087344;54;20038;-80
2022/10/17 13:12:41;;;;;;;5.88;2.80;;;;;;;25.20;47.23;100545.53;1087391;54;20047;-79
2022/10/17 13:13:48;;;;;;;4.32;2.50;;;;;;;25.33;46.78;100552.72;1090459;39;20701;-81
2022/10/17 13:14:51;;;;;;;8.35;2.28;;;;;;;24.98;47.26;100554.22;1087710;54;20053;-81
2022/10/17 13:16:03;;;;;;;5.35;2.58;;;;;;;24.81;46.62;100556.69;1087274;54;20026;-80
2022/10/17 13:17:06;;;;;;;5.97;2.40;;;;;;;24.94;46.86;100555.72;1087176;54;20025;-80
2022/10/17 13:18:20;;;;;;;5.43;2.08;;;;;;;25.02;46.38;100558.16;1086715;54;20045;-81
2022/10/17 13:19:28;;;;;;;5.22;1.90;;;;;;;24.87;46.37;100553.06;1087503;54;20026;-80
2022/10/17 13:20:33;;;;;;;7.90;2.45;;;;;;;25.07;46.68;100558.31;1087802;54;20042;-82
2022/10/17 13:21:38;;;;;;;4.38;2.03;;;;;;;25.08;46.33;100559.97;1087789;54;20042;-81
2022/10/17 13:22:47;;;;;;;3.60;1.77;;;;;;;25.07;45.57;100552.00;1087287;54;20015;-81
2022/10/17 13:23:52;;;;;;;5.30;2.00;;;;;;;25.04;45.61;100558.75;1090639;46;20034;-79
2022/10/17 13:26:18;;;;;;;3.42;2.03;;;;;;;24.93;44.53;100559.53;1086379;54;20031;-81
2022/10/17 13:27:27;;;;;;;5.72;1.70;;;;;;;24.99;43.88;100555.03;1088275;54;20573;-80
2022/10/17 13:30:48;;;;;;;4.43;2.00;;;;;;;25.24;43.82;100554.94;1086837;54;20037;-81
2022/10/17 13:31:53;;;;;;;5.03;1.98;;;;;;;24.93;43.93;100565.00;1086442;54;20054;-80
2022/10/17 13:33:04;;;;;;;5.25;1.90;;;;;;;24.92;43.57;100563.34;1086540;54;20026;-79
2022/10/17 13:34:18;;;;;;;4.13;2.22;;;;;;;24.97;43.82;100574.41;1086126;54;20041;-79
2022/10/17 13:35:34;;;;;;;5.43;2.05;;;;;;;25.10;43.57;100570.69;1086208;54;20034;-80
2022/10/17 13:36:36;;;;;;;5.40;2.00;;;;;;;25.24;43.77;100568.63;1086197;54;20034;-79
2022/10/17 13:39:55;;;;;;;3.60;1.92;;;;;;;24.94;44.36;100563.91;1087977;54;20001;-80
2022/10/17 13:40:58;;;;;;;4.35;1.90;;;;;;;25.19;44.40;100565.75;1088123;54;20022;-79
2022/10/17 13:47:31;;;;;;;5.30;1.90;;;;;;;25.40;43.72;100558.97;1086712;54;20030;-78
2022/10/17 13:48:38;;;;;;;3.67;1.98;;;;;;;25.30;44.09;100554.03;1087006;54;20042;-79
2022/10/17 13:49:44;;;;;;;6.72;2.30;;;;;;;25.42;44.25;100558.72;1087638;54;20061;-79
2022/10/17 13:53:02;;;;;;;5.22;1.95;;;;;;;25.47;44.41;100561.63;1077242;47;21184;31
2022/10/17 13:54:20;;;;;;;5.40;2.10;;;;;;;25.19;44.43;100571.22;1087058;54;20030;-79
2022/10/17 13:55:21;;;;;;;5.68;2.50;;;;;;;25.28;44.40;100567.09;1085767;54;20034;-83
2022/10/17 13:56:28;;;;;;;5.07;2.00;;;;;;;25.46;44.12;100565.44;1085238;54;20035;-80
2022/10/17 13:57:30;;;;;;;8.70;2.50;;;;;;;25.22;44.36;100566.13;1087452;54;20027;-82
2022/10/17 13:58:42;;;;;;;4.63;2.10;;;;;;;25.01;44.22;100570.16;1089466;47;20093;-81
2022/10/17 13:59:46;;;;;;;5.50;2.17;;;;;;;25.31;44.08;100571.28;1089274;47;20015;-80
2022/10/17 14:01:24;;;;;;;3.95;1.90;;;;;;;25.28;43.81;100569.00;1087291;47;20035;-79
2022/10/17 14:02:27;;;;;;;4.78;2.13;;;;;;;25.15;44.27;100573.56;1086228;54;20026;-79
2022/10/17 14:03:34;;;;;;;5.43;2.13;;;;;;;25.20;44.20;100579.19;1087787;47;20034;-79
2022/10/17 14:04:35;;;;;;;6.60;2.20;;;;;;;25.29;44.21;100571.50;1085723;54;20027;-79
2022/10/17 14:06:13;;;;;;;4.85;2.35;;;;;;;24.97;44.44;100568.94;1087822;54;20007;-79
2022/10/17 14:07:32;;;;;;;6.60;1.92;;;;;;;24.99;44.23;100571.44;1085589;54;20065;-80
2022/10/17 14:08:42;;;;;;;4.97;2.17;;;;;;;25.11;44.58;100569.63;1085833;54;20035;-79
2022/10/17 14:09:54;;;;;;;5.43;2.17;;;;;;;25.26;44.16;100566.50;1086525;54;20612;-78
2022/10/17 14:10:56;;;;;;;5.57;2.10;;;;;;;25.19;44.40;100560.28;1085679;54;20080;-79
2022/10/17 14:12:05;;;;;;;8.70;2.30;;;;;;;25.32;44.34;100559.25;1087251;31;20516;-79
2022/10/17 14:16:45;;;;;;;8.23;2.33;;;;;;;25.42;44.29;100566.94;1085480;54;20026;-78
2022/10/17 14:17:54;;;;;;;3.35;2.25;;;;;;;25.46;44.20;100554.47;1085992;54;20069;-78
2022/10/17 14:18:58;;;;;;;4.22;2.28;;;;;;;25.51;44.06;100562.81;1086446;54;20030;-80
2022/10/17 14:20:33;;;;;;;5.18;2.17;;;;;;;25.39;44.31;100562.75;1087278;54;20049;-80
2022/10/17 14:21:34;;;;;;;6.57;2.45;;;;;;;25.35;44.59;100558.81;1086689;54;20026;-75
2022/10/17 14:22:38;;;;;;;4.82;2.03;;;;;;;25.48;44.57;100552.34;1084948;54;20042;-79
2022/10/17 14:24:43;;;;;;;4.05;2.17;;;;;;;25.59;44.25;100553.47;1084991;54;20027;-77
2022/10/17 14:26:02;;;;;;;4.75;2.30;;;;;;;25.50;44.25;100551.06;1088198;54;20049;-78
2022/10/17 14:27:28;;;;;;;4.75;2.50;;;;;;;25.25;44.35;100550.31;1084909;54;20054;-77
2022/10/17 14:28:30;;;;;;;5.78;2.15;;;;;;;25.41;44.75;100557.09;1086087;54;20057;-78
2022/10/17 14:29:52;;;;;;;4.22;2.15;;;;;;;25.32;44.36;100549.16;1087572;54;20027;-79
2022/10/17 14:31:09;;;;;;;4.03;2.10;;;;;;;25.29;44.54;100557.84;1088530;46;20043;-79
2022/10/17 14:32:16;;;;;;;5.40;2.13;;;;;;;25.34;44.72;100552.50;1089437;46;20041;-79
2022/10/17 14:33:24;;;;;;;4.50;1.95;;;;;;;25.34;45.17;100544.28;1086120;54;20038;-78
2022/10/17 14:34:32;;;;;;;3.78;2.08;;;;;;;25.43;44.92;100555.78;1088423;46;20053;-78
2022/10/17 14:35:40;;;;;;;4.95;1.98;;;;;;;25.43;45.01;100561.25;1086991;54;20030;-78
2022/10/17 14:36:44;;;;;;;3.65;2.05;;;;;;;25.36;45.42;100555.03;1088498;39;20510;-79
2022/10/17 14:38:11;;;;;;;7.63;2.38;;;;;;;25.01;45.17;100559.22;1088043;46;20050;-78
2022/10/17 14:39:25;;;;;;;6.15;2.20;;;;;;;25.14;44.94;100551.91;1087703;54;20035;-78
2022/10/17 14:40:40;;;;;;;6.43;3.10;;;;;;;25.17;45.36;100562.41;1087701;54;20034;-79
2022/10/17 14:41:53;;;;;;;4.70;2.50;;;;;;;25.10;45.33;100565.22;1087814;54;20026;-80
2022/10/17 14:43:09;;;;;;;5.05;2.90;;;;;;;25.12;45.48;100571.28;1087859;46;20033;-79
2022/10/17 14:44:25;;;;;;;7.22;2.33;;;;;;;25.13;45.31;100563.94;1086646;54;20034;-78
2022/10/17 14:47:36;;;;;;;4.35;2.00;;;;;;;24.71;45.16;100565.44;1087660;54;20014;-79
2022/10/17 14:48:40;;;;;;;6.07;2.55;;;;;;;24.91;45.44;100565.22;1087804;54;20031;-80
2022/10/17 14:50:11;;;;;;;5.32;2.50;;;;;;;24.90;45.78;100568.19;1087984;54;20030;-78
2022/10/17 14:57:17;;;;;;;6.88;2.33;;;;;;;24.88;46.17;100568.41;1085287;54;21855;-79
2022/10/17 14:58:27;;;;;;;5.97;2.95;;;;;;;24.85;46.65;100573.47;1085674;54;20545;-78
2022/10/17 14:59:31;;;;;;;11.18;4.63;;;;;;;24.83;46.93;100564.69;1085556;54;20043;-80
2022/10/17 15:00:37;;;;;;;6.07;4.00;;;;;;;24.81;46.98;100578.56;1085750;54;20557;-79
2022/10/17 15:01:40;;;;;;;6.07;3.03;;;;;;;24.66;47.23;100581.63;1085623;54;20027;-78
2022/10/17 15:02:45;;;;;;;5.03;3.40;;;;;;;24.82;47.32;100573.97;1086695;46;20030;-79
2022/10/17 15:03:47;;;;;;;5.00;2.85;;;;;;;24.79;47.13;100579.88;1085235;54;20042;-80
2022/10/17 15:04:51;;;;;;;6.55;2.90;;;;;;;24.82;47.41;100580.25;1084993;54;20049;-78
2022/10/17 15:05:54;;;;;;;4.20;2.38;;;;;;;24.92;47.12;100580.56;1084730;54;20565;-76
2022/10/17 15:07:01;;;;;;;6.15;3.33;;;;;;;24.91;47.21;100580.78;1084394;54;20036;-76
2022/10/17 15:08:07;;;;;;;5.88;3.05;;;;;;;24.87;47.43;100579.56;1084455;54;20043;-76
2022/10/17 15:09:09;;;;;;;5.50;3.03;;;;;;;24.82;47.72;100576.69;1086260;54;20038;-79
2022/10/17 15:10:32;;;;;;;5.82;2.95;;;;;;;24.71;47.88;100575.53;1085063;54;20027;-78
2022/10/17 15:11:33;;;;;;;4.97;3.00;;;;;;;24.78;48.03;100587.25;1085327;54;20043;-77
2022/10/17 15:12:46;;;;;;;7.30;2.80;;;;;;;24.68;48.42;100593.22;1086243;54;20100;-77
2022/10/17 15:13:47;;;;;;;4.18;2.40;;;;;;;24.77;48.02;100580.94;1085134;54;20030;-78
2022/10/17 15:14:53;;;;;;;6.82;2.60;;;;;;;24.82;47.88;100588.44;1084664;54;20050;-78
2022/10/17 15:15:54;;;;;;;5.00;2.45;;;;;;;24.62;48.17;100591.34;1083256;54;20042;-78
2022/10/17 15:16:58;;;;;;;9.48;2.35;;;;;;;24.56;48.30;100584.06;1083416;39;20602;-79
2022/10/17 15:18:00;;;;;;;5.63;2.20;;;;;;;24.70;48.03;100585.63;1082991;54;20046;-77
2022/10/17 15:19:04;;;;;;;6.72;2.38;;;;;;;24.74;47.64;100581.41;1083349;54;20057;-79
2022/10/17 15:20:12;;;;;;;6.53;3.72;;;;;;;24.75;47.64;100583.03;1082422;54;20088;-79
2022/10/17 15:21:18;;;;;;;7.45;4.13;;;;;;;24.78;47.83;100581.78;1083603;54;20034;-79
2022/10/17 15:22:35;;;;;;;5.97;3.63;;;;;;;24.67;48.10;100580.56;1083539;54;20069;-79
2022/10/17 15:23:43;;;;;;;5.90;4.05;;;;;;;24.67;48.16;100588.78;1082540;54;21080;-78
2022/10/17 15:24:50;;;;;;;8.55;4.07;;;;;;;24.64;48.48;100589.25;1084702;54;20067;-80
2022/10/17 15:25:55;;;;;;;4.95;3.10;;;;;;;24.64;48.66;100586.50;1085271;54;20046;-79
2022/10/17 15:27:04;;;;;;;5.72;3.88;;;;;;;24.66;48.48;100587.09;1085633;54;20038;-79
2022/10/17 15:28:10;;;;;;;5.47;3.67;;;;;;;24.67;48.46;100585.22;1084359;54;20098;-79
2022/10/17 15:29:17;;;;;;;6.30;3.88;;;;;;;24.67;48.55;100591.50;1084370;54;20565;-79
2022/10/17 15:30:21;;;;;;;6.13;3.78;;;;;;;24.60;48.68;100590.75;1085759;47;20094;-79
2022/10/17 15:31:28;;;;;;;5.70;4.05;;;;;;;24.63;48.77;100589.44;1084319;54;20069;-79
2022/10/17 15:32:29;;;;;;;6.78;4.38;;;;;;;24.64;48.90;100591.13;1084344;54;20042;-80
2022/10/17 15:33:33;;;;;;;9.43;6.35;;;;;;;24.60;48.84;100588.88;1086961;39;20414;-80
2022/10/17 15:34:35;;;;;;;7.63;4.53;;;;;;;24.47;49.23;100580.78;1085964;54;20064;-80
2022/10/17 15:35:41;;;;;;;7.00;4.32;;;;;;;24.54;49.11;100592.47;1086438;54;20098;-81
2022/10/17 15:36:49;;;;;;;6.68;4.13;;;;;;;24.49;48.95;100586.84;1086053;54;20062;-80
2022/10/17 15:38:01;;;;;;;6.35;3.40;;;;;;;24.45;49.19;100586.47;1085278;54;20556;-80
2022/10/17 15:39:03;;;;;;;8.18;3.28;;;;;;;24.42;49.27;100586.91;1085584;54;20039;-80
2022/10/17 15:40:08;;;;;;;5.63;3.17;;;;;;;24.45;49.46;100586.47;1085430;54;20039;-81
2022/10/17 15:41:10;;;;;;;4.55;2.80;;;;;;;24.45;49.04;100591.94;1085237;54;20075;-79
2022/10/17 15:42:14;;;;;;;5.32;3.17;;;;;;;24.45;49.24;100594.66;1083045;54;20058;-79
2022/10/17 15:43:19;;;;;;;7.75;4.50;;;;;;;24.45;49.15;100588.34;1081825;54;20168;-79
2022/10/17 15:44:23;;;;;;;9.68;4.47;;;;;;;24.47;49.27;100590.88;1082805;54;20072;-78
2022/10/17 15:45:25;;;;;;;6.05;4.07;;;;;;;24.45;49.32;100588.34;1085014;54;20057;-79
2022/10/17 15:46:32;;;;;;;6.65;4.28;;;;;;;24.44;49.43;100586.69;1086880;54;20034;-79
2022/10/17 15:47:33;;;;;;;6.78;3.75;;;;;;;24.45;49.15;100586.47;1086218;54;20063;-80
2022/10/17 15:48:39;;;;;;;6.20;4.00;;;;;;;24.39;49.59;100587.34;1086827;54;20042;-80
2022/10/17 15:49:41;;;;;;;6.45;4.05;;;;;;;24.43;49.54;100594.06;1086727;54;20059;-81
2022/10/17 15:50:46;;;;;;;10.73;4.88;;;;;;;24.40;49.62;100589.03;1084443;54;20039;-80
2022/10/17 15:51:52;;;;;;;6.25;4.28;;;;;;;24.44;49.51;100595.72;1086325;54;20035;-80
2022/10/17 15:52:56;;;;;;;7.72;4.40;;;;;;;24.37;49.73;100592.19;1087985;54;20116;-80
2022/10/17 15:54:00;;;;;;;8.38;4.25;;;;;;;24.39;49.47;100594.72;1087649;54;20041;-80
2022/10/17 15:55:08;;;;;;;5.82;3.47;;;;;;;24.34;49.71;100589.06;1087822;54;20042;-79
2022/10/17 15:56:19;;;;;;;7.00;3.90;;;;;;;24.28;49.68;100601.72;1087614;54;20055;-81